createdAt,value
2023-04-12T00:13:28.240Z,4.26
2023-04-12T00:16:50.435Z,4.27
2023-04-12T00:20:12.781Z,4.26
2023-04-12T00:23:35.125Z,4.18
2023-04-12T00:26:56.731Z,4.13
2023-04-12T00:30:20.332Z,4.07
2023-04-12T00:33:41.847Z,4.02
2023-04-12T00:37:03.448Z,3.95
2023-04-12T00:40:26.074Z,3.89
2023-04-12T00:43:48.157Z,3.83
2023-04-12T00:47:11.733Z,3.77
2023-04-12T00:50:33.706Z,3.71
2023-04-12T00:53:58.768Z,3.62
2023-04-12T00:57:21.110Z,3.58
2023-04-12T01:00:44.896Z,3.53
2023-04-12T01:04:09.354Z,3.51
2023-04-12T01:07:40.277Z,3.49
2023-04-12T01:11:07.430Z,3.42
2023-04-12T01:14:37.423Z,3.35
2023-04-12T01:18:04.210Z,3.24
2023-04-12T01:21:37.130Z,3.16
2023-04-12T01:25:12.388Z,3.11
2023-04-12T01:28:39.069Z,3.06
2023-04-12T01:32:03.033Z,3.01
2023-04-12T01:35:29.245Z,2.97
2023-04-12T01:38:51.725Z,2.97
2023-04-12T01:42:13.922Z,2.92
2023-04-12T01:45:37.622Z,2.87
2023-04-12T01:48:59.976Z,2.85
2023-04-12T01:52:22.495Z,2.85
2023-04-12T01:55:46.912Z,2.81
2023-04-12T01:59:10.141Z,2.81
2023-04-12T02:02:36.201Z,2.78
2023-04-12T02:05:59.890Z,2.72
2023-04-12T02:09:22.651Z,2.67
2023-04-12T02:12:43.934Z,2.64
2023-04-12T02:16:08.006Z,2.62
2023-04-12T02:19:31.459Z,2.61
2023-04-12T02:22:54.138Z,2.59
2023-04-12T02:26:15.952Z,2.59
2023-04-12T02:29:38.117Z,2.57
2023-04-12T02:32:59.505Z,2.55
2023-04-12T02:36:29.005Z,2.51
2023-04-12T02:39:50.883Z,2.51
2023-04-12T02:43:12.446Z,2.45
2023-04-12T02:46:38.674Z,2.41
2023-04-12T02:50:00.502Z,2.37
2023-04-12T02:53:25.258Z,2.35
2023-04-12T02:57:05.223Z,2.29
2023-04-12T03:00:36.960Z,2.29
2023-04-12T03:03:59.129Z,2.26
2023-04-12T03:07:33.827Z,2.22
2023-04-12T03:10:57.043Z,2.14
2023-04-12T03:14:20.716Z,2.11
2023-04-12T03:17:42.997Z,2.11
2023-04-12T03:21:05.725Z,2.09
2023-04-12T03:24:28.078Z,2.06
2023-04-12T03:27:51.421Z,2.03
2023-04-12T03:31:21.030Z,2.01
2023-04-12T03:34:42.635Z,1.98
2023-04-12T03:38:07.920Z,1.95
2023-04-12T03:41:29.926Z,1.91
2023-04-12T03:44:54.406Z,1.86
2023-04-12T03:48:17.298Z,1.86
2023-04-12T03:51:43.078Z,1.83
2023-04-12T03:55:06.194Z,1.79
2023-04-12T03:58:28.447Z,1.77
2023-04-12T04:01:51.966Z,1.75
2023-04-12T04:05:13.922Z,1.74
2023-04-12T04:08:38.755Z,1.75
2023-04-12T04:12:01.306Z,1.71
2023-04-12T04:15:23.809Z,1.71
2023-04-12T04:18:47.172Z,1.69
2023-04-12T04:22:12.430Z,1.65
2023-04-12T04:25:34.998Z,1.65
2023-04-12T04:29:04.651Z,1.65
2023-04-12T04:32:31.634Z,1.65
2023-04-12T04:35:57.180Z,1.65
2023-04-12T04:39:23.349Z,1.64
2023-04-12T04:42:46.326Z,1.63
2023-04-12T04:46:08.500Z,1.62
2023-04-12T04:49:33.805Z,1.59
2023-04-12T04:53:03.020Z,1.57
2023-04-12T04:56:27.644Z,1.56
2023-04-12T04:59:49.296Z,1.58
2023-04-12T05:03:12.660Z,1.59
2023-04-12T05:06:34.560Z,1.62
2023-04-12T05:09:59.377Z,1.65
2023-04-12T05:13:22.660Z,1.66
2023-04-12T05:16:44.509Z,1.70
2023-04-12T05:20:07.914Z,1.79
2023-04-12T05:23:30.007Z,1.88
2023-04-12T05:26:53.243Z,1.95
2023-04-12T05:30:15.336Z,2.01
2023-04-12T05:33:37.584Z,2.03
2023-04-12T05:36:59.919Z,2.09
2023-04-12T05:40:25.913Z,2.13
2023-04-12T05:43:49.999Z,2.16
2023-04-12T05:47:12.217Z,2.20
2023-04-12T05:50:34.083Z,2.23
2023-04-12T05:53:57.288Z,2.28
2023-04-12T05:57:20.984Z,2.34
2023-04-12T06:00:45.374Z,2.39
2023-04-12T06:04:08.063Z,2.47
2023-04-12T06:07:30.896Z,2.60
2023-04-12T06:10:52.318Z,2.71
2023-04-12T06:14:14.402Z,2.84
2023-04-12T06:17:38.830Z,2.98
2023-04-12T06:21:00.709Z,3.12
2023-04-12T06:24:22.906Z,3.27
2023-04-12T06:27:44.331Z,3.40
2023-04-12T06:31:07.041Z,3.52
2023-04-12T06:34:34.864Z,3.66
2023-04-12T06:38:00.528Z,3.75
2023-04-12T06:41:22.829Z,3.87
2023-04-12T06:44:53.834Z,4.02
2023-04-12T06:48:15.775Z,4.17
2023-04-12T06:51:38.932Z,4.27
2023-04-12T06:55:00.673Z,4.38
2023-04-12T06:58:22.258Z,4.51
2023-04-12T07:01:44.089Z,4.63
2023-04-12T07:05:06.472Z,4.73
2023-04-12T07:08:30.186Z,4.86
2023-04-12T07:11:51.580Z,4.96
2023-04-12T07:15:13.535Z,5.10
2023-04-12T07:18:35.676Z,5.22
2023-04-12T07:21:58.026Z,5.38
2023-04-12T07:25:20.983Z,5.52
2023-04-12T07:28:42.973Z,5.64
2023-04-12T07:32:05.314Z,5.79
2023-04-12T07:35:27.481Z,5.96
2023-04-12T07:38:55.020Z,6.10
2023-04-12T07:42:19.102Z,6.26
2023-04-12T07:45:40.567Z,6.41
2023-04-12T07:49:02.401Z,6.60
2023-04-12T07:52:24.371Z,6.74
2023-04-12T07:55:46.000Z,6.89
2023-04-12T07:59:09.504Z,7.01
2023-04-12T08:02:31.546Z,7.14
2023-04-12T08:05:54.569Z,7.25
2023-04-12T08:09:16.522Z,7.37
2023-04-12T08:12:38.454Z,7.46
2023-04-12T08:16:01.815Z,7.60
2023-04-12T08:19:23.300Z,7.74
2023-04-12T08:22:45.066Z,7.89
2023-04-12T08:26:06.880Z,8.01
2023-04-12T08:29:28.712Z,8.09
2023-04-12T08:32:51.918Z,8.22
2023-04-12T08:36:14.005Z,8.32
2023-04-12T08:39:35.625Z,8.43
2023-04-12T08:42:58.984Z,8.54
2023-04-12T08:46:21.111Z,8.66
2023-04-12T08:49:45.398Z,8.76
2023-04-12T08:53:06.930Z,8.89
2023-04-12T08:56:30.183Z,9.00
2023-04-12T08:59:53.838Z,9.08
2023-04-12T09:03:15.711Z,9.16
2023-04-12T09:06:39.372Z,9.30
2023-04-12T09:10:01.000Z,9.41
2023-04-12T09:13:33.468Z,9.50
2023-04-12T09:16:55.276Z,9.62
2023-04-12T09:20:35.129Z,9.73
2023-04-12T09:24:14.316Z,9.82
2023-04-12T09:27:47.398Z,9.92
2023-04-12T09:31:17.350Z,9.98
2023-04-12T09:34:39.591Z,10.05
2023-04-12T09:38:08.705Z,10.16
2023-04-12T09:41:32.142Z,10.24
2023-04-12T09:44:54.976Z,10.33
2023-04-12T09:48:21.872Z,10.41
2023-04-12T09:51:43.879Z,10.51
2023-04-12T09:55:10.629Z,10.56
2023-04-12T09:58:37.756Z,10.68
2023-04-12T10:05:51.274Z,10.85
2023-04-12T10:09:14.568Z,10.92
2023-04-12T10:12:37.929Z,10.98
2023-04-12T10:16:01.798Z,11.08
2023-04-12T10:19:38.726Z,11.11
2023-04-12T10:23:00.676Z,11.19
2023-04-12T10:26:24.337Z,11.27
2023-04-12T10:29:46.569Z,11.32
2023-04-12T10:33:17.933Z,11.37
2023-04-12T10:36:57.133Z,11.46
2023-04-12T10:40:19.708Z,11.50
2023-04-12T10:43:41.878Z,11.53
2023-04-12T10:47:03.848Z,11.55
2023-04-12T10:50:27.848Z,11.59
2023-04-12T10:54:35.224Z,11.66
2023-04-12T10:57:56.968Z,11.72
2023-04-12T11:01:19.031Z,11.76
2023-04-12T11:05:00.604Z,11.84
2023-04-12T11:08:44.992Z,11.90
2023-04-12T11:12:21.153Z,11.92
2023-04-12T11:15:43.027Z,11.94
2023-04-12T11:19:09.367Z,12.02
2023-04-12T11:22:32.797Z,12.08
2023-04-12T11:25:57.407Z,12.16
2023-04-12T11:29:24.951Z,12.14
2023-04-12T11:32:47.288Z,12.24
2023-04-12T11:36:12.287Z,12.33
2023-04-12T11:39:33.838Z,12.38
2023-04-12T11:42:58.060Z,12.47
2023-04-12T11:46:20.421Z,12.54
2023-04-12T11:49:46.062Z,12.59
2023-04-12T11:53:12.366Z,12.67
2023-04-12T11:56:34.226Z,12.70
2023-04-12T12:00:00.389Z,12.78
2023-04-12T12:03:22.343Z,12.84
2023-04-12T12:06:45.032Z,12.92
2023-04-12T12:10:08.701Z,13.02
2023-04-12T12:14:21.383Z,13.08
2023-04-12T12:17:44.723Z,13.16
2023-04-12T12:21:10.853Z,13.20
2023-04-12T12:24:32.529Z,13.26
2023-04-12T12:27:59.248Z,13.27
2023-04-12T12:31:22.552Z,13.36
2023-04-12T12:34:51.848Z,13.42
2023-04-12T12:38:13.326Z,13.49
2023-04-12T12:41:34.913Z,13.46
2023-04-12T12:44:57.097Z,13.53
2023-04-12T12:48:21.316Z,13.59
2023-04-12T12:51:44.723Z,13.65
2023-04-12T12:55:07.143Z,13.69
2023-04-12T12:58:29.038Z,13.73
2023-04-12T13:01:50.928Z,13.80
2023-04-12T13:05:13.947Z,13.87
2023-04-12T13:08:37.720Z,13.88
2023-04-12T13:11:59.391Z,13.89
2023-04-12T13:15:23.886Z,13.93
2023-04-12T13:18:46.055Z,13.97
2023-04-12T13:22:08.222Z,13.98
2023-04-12T13:25:31.490Z,14.00
2023-04-12T13:28:53.033Z,14.00
2023-04-12T13:32:15.666Z,14.06
2023-04-12T13:35:37.530Z,14.12
2023-04-12T13:38:59.180Z,14.11
2023-04-12T13:42:22.837Z,14.17
2023-04-12T13:45:45.036Z,14.22
2023-04-12T13:49:06.922Z,14.25
2023-04-12T13:52:28.750Z,14.26
2023-04-12T13:55:51.013Z,14.27
2023-04-12T13:59:14.950Z,14.29
2023-04-12T14:02:36.750Z,14.33
2023-04-12T14:05:58.381Z,14.38
2023-04-12T14:09:26.895Z,14.46
2023-04-12T14:12:48.580Z,14.43
2023-04-12T14:16:12.112Z,14.41
2023-04-12T14:19:33.817Z,14.46
2023-04-12T14:22:56.890Z,14.47
2023-04-12T14:26:18.767Z,14.48
2023-04-12T14:29:40.335Z,14.48
2023-04-12T14:33:03.784Z,14.55
2023-04-12T14:36:27.302Z,14.61
2023-04-12T14:39:48.736Z,14.60
2023-04-12T14:43:10.632Z,14.64
2023-04-12T14:46:34.771Z,14.67
2023-04-12T14:49:58.127Z,14.70
2023-04-12T14:53:20.025Z,14.70
2023-04-12T14:56:49.076Z,14.69
2023-04-12T15:00:16.388Z,14.70
2023-04-12T15:03:39.782Z,14.67
2023-04-12T15:07:02.847Z,14.61
2023-04-12T15:10:24.813Z,14.59
2023-04-12T15:13:46.764Z,14.62
2023-04-12T15:17:08.508Z,14.57
2023-04-12T15:20:30.373Z,14.54
2023-04-12T15:23:53.266Z,14.50
2023-04-12T15:27:15.016Z,14.51
2023-04-12T15:30:37.225Z,14.46
2023-04-12T15:33:58.696Z,14.44
2023-04-12T15:37:20.538Z,14.42
2023-04-12T15:40:44.199Z,14.45
2023-04-12T15:44:06.242Z,14.50
2023-04-12T15:47:27.561Z,14.50
2023-04-12T15:50:49.772Z,14.48
2023-04-12T15:54:11.764Z,14.40
2023-04-12T15:57:37.204Z,14.40
2023-04-12T16:00:59.936Z,14.38
2023-04-12T16:04:22.159Z,14.30
2023-04-12T16:07:44.700Z,14.23
2023-04-12T16:11:06.686Z,14.21
2023-04-12T16:14:30.560Z,14.16
2023-04-12T16:17:54.511Z,14.05
2023-04-12T16:21:20.268Z,14.04
2023-04-12T16:24:41.793Z,14.00
2023-04-12T16:28:03.580Z,13.91
2023-04-12T16:31:27.863Z,13.85
2023-04-12T16:34:51.206Z,13.85
2023-04-12T16:38:14.707Z,13.81
2023-04-12T16:41:37.554Z,13.78
2023-04-12T16:44:59.654Z,13.80
2023-04-12T16:48:23.158Z,13.83
2023-04-12T16:51:44.969Z,13.82
2023-04-12T16:55:10.841Z,13.80
2023-04-12T16:58:33.134Z,13.79
2023-04-12T17:01:55.013Z,13.73
2023-04-12T17:05:19.865Z,13.73
2023-04-12T17:08:41.562Z,13.65
2023-04-12T17:12:03.313Z,13.69
2023-04-12T17:15:28.412Z,13.71
2023-04-12T17:18:50.284Z,13.64
2023-04-12T17:22:13.284Z,13.59
2023-04-12T17:25:35.406Z,13.60
2023-04-12T17:28:58.870Z,13.58
2023-04-12T17:32:21.069Z,13.60
2023-04-12T17:35:42.846Z,13.58
2023-04-12T17:39:05.732Z,13.57
2023-04-12T17:42:27.790Z,13.56
2023-04-12T17:45:49.832Z,13.50
2023-04-12T17:49:11.927Z,13.51
2023-04-12T17:52:33.761Z,13.50
2023-04-12T17:55:57.002Z,13.45
2023-04-12T17:59:19.012Z,13.41
2023-04-12T18:02:41.608Z,13.41
2023-04-12T18:06:04.157Z,13.36
2023-04-12T18:09:27.356Z,13.34
2023-04-12T18:12:51.137Z,13.33
2023-04-12T18:16:13.186Z,13.30
2023-04-12T18:19:34.580Z,13.29
2023-04-12T18:22:56.877Z,13.27
2023-04-12T18:26:18.475Z,13.26
2023-04-12T18:29:41.749Z,13.24
2023-04-12T18:33:04.692Z,13.20
2023-04-12T18:36:28.557Z,13.14
2023-04-12T18:39:53.066Z,13.11
2023-04-12T18:43:14.651Z,13.08
2023-04-12T18:46:38.312Z,13.07
2023-04-12T18:49:59.832Z,13.04
2023-04-12T18:53:21.578Z,13.01
2023-04-12T18:56:43.622Z,12.98
2023-04-12T19:00:13.627Z,12.95
2023-04-12T19:03:36.966Z,12.90
2023-04-12T19:06:58.769Z,12.86
2023-04-12T19:10:24.186Z,12.86
2023-04-12T19:13:46.018Z,12.84
2023-04-12T19:17:08.044Z,12.83
2023-04-12T19:20:31.213Z,12.82
2023-04-12T19:23:53.085Z,12.79
2023-04-12T19:27:15.000Z,12.79
2023-04-12T19:30:36.907Z,12.75
2023-04-12T19:33:58.693Z,12.72
2023-04-12T19:37:22.385Z,12.69
2023-04-12T19:40:44.166Z,12.67
2023-04-12T19:44:05.958Z,12.66
2023-04-12T19:47:28.060Z,12.63
2023-04-12T19:50:49.622Z,12.60
2023-04-12T19:54:13.491Z,12.58
2023-04-12T19:57:38.057Z,12.55
2023-04-12T20:01:02.963Z,12.57
2023-04-12T20:04:27.437Z,12.56
2023-04-12T20:07:49.873Z,12.57
2023-04-12T20:11:13.615Z,12.55
2023-04-12T20:14:36.948Z,12.52
2023-04-12T20:17:59.019Z,12.50
2023-04-12T20:21:21.583Z,12.50
2023-04-12T20:24:43.175Z,12.49
2023-04-12T20:28:06.413Z,12.48
2023-04-12T20:31:28.863Z,12.47
2023-04-12T20:34:50.342Z,12.45
2023-04-12T20:38:13.173Z,12.44
2023-04-12T20:41:38.198Z,12.42
2023-04-12T20:45:01.535Z,12.42
2023-04-12T20:48:23.382Z,12.41
2023-04-12T20:51:46.753Z,12.39
2023-04-12T20:55:11.069Z,12.39
2023-04-12T20:58:35.096Z,12.38
2023-04-12T21:01:59.665Z,12.34
2023-04-12T21:05:21.889Z,12.27
2023-04-12T21:08:46.863Z,12.30
2023-04-12T21:12:09.913Z,12.33
2023-04-12T21:15:35.399Z,12.32
2023-04-12T21:18:59.512Z,12.34
2023-04-12T21:22:21.731Z,12.32
2023-04-12T21:25:43.593Z,12.24
2023-04-12T21:29:05.132Z,12.25
2023-04-12T21:32:26.868Z,12.26
2023-04-12T21:35:50.119Z,12.20
2023-04-12T21:39:12.446Z,12.20
2023-04-12T21:42:34.211Z,12.21
2023-04-12T21:45:55.807Z,12.24
2023-04-12T21:49:17.787Z,12.22
2023-04-12T21:52:43.089Z,12.22
2023-04-12T21:56:06.588Z,12.17
2023-04-12T21:59:28.328Z,12.19
2023-04-12T22:02:50.238Z,12.19
2023-04-12T22:06:13.106Z,12.18
2023-04-12T22:09:36.020Z,12.11
2023-04-12T22:12:57.644Z,12.06
2023-04-12T22:16:22.088Z,12.02
2023-04-12T22:19:44.984Z,11.97
2023-04-12T22:23:07.436Z,11.91
2023-04-12T22:26:31.651Z,11.83
2023-04-12T22:29:53.686Z,11.73
2023-04-12T22:33:16.113Z,11.65
2023-04-12T22:36:42.313Z,11.58
2023-04-12T22:40:11.361Z,11.50
2023-04-12T22:43:42.101Z,11.48
2023-04-12T22:47:04.502Z,11.46
2023-04-12T22:50:26.773Z,11.42
2023-04-12T22:53:50.303Z,11.40
2023-04-12T22:57:12.667Z,11.37
2023-04-12T23:00:36.194Z,11.29
2023-04-12T23:04:01.133Z,11.21
2023-04-12T23:07:23.068Z,11.17
2023-04-12T23:10:45.799Z,11.15
2023-04-12T23:14:08.443Z,11.12
2023-04-12T23:17:32.915Z,11.07
2023-04-12T23:20:55.229Z,11.00
2023-04-12T23:24:17.587Z,11.00
2023-04-12T23:27:39.260Z,10.98
2023-04-12T23:31:01.901Z,10.97
2023-04-12T23:34:26.517Z,10.96
2023-04-12T23:37:48.629Z,10.93
2023-04-12T23:41:12.535Z,10.94
2023-04-12T23:44:34.239Z,10.92
2023-04-12T23:47:55.555Z,10.93
2023-04-12T23:51:18.546Z,10.92
2023-04-12T23:54:40.203Z,10.93
2023-04-12T23:58:01.640Z,10.92
